Del Rio International Airport
KDRT : now visible

Airfield :











YOU CAN JOIN US ON...

 
LOGIN :

Register | Disclaimer

   EN    FR    IT 

 









Legend :    VFR   Marginal VFR   IFR   Intensive IFR   Very Intensive IFR
Visi :
Ceiling :
>= 8 km
>= 3000ft
5 to 8 km
1000 to 3000 ft
1500m to 5 km
500 to 1000 ft
800 to 1500m
200 to 500 ft
< 800m
< 200 ft
Symbols :   Thunderstorms  Fog  Heavy snow  Heavy precipitations  Wind > 20 kt







- Airport Elevation : 1002 ft


KDRT - Del Rio International

CURRENT METAR :
  • 210353Z AUTO 11012KT 10SM OVC085 32/17 A2990 RMK AO2 SLP106 T03170172

EXPIRED METARs :
  • 210253Z AUTO 13007KT 10SM CLR 32/18 A2987 RMK AO2 SLP096 T03220183 53020
  • 210153Z AUTO 14009KT 10SM CLR 33/19 A2983 RMK AO2 SLP082 T03280189

TAF KDRT
Valid from the 21 at 04:00 until the 22 at 00:00 UTC


210358Z 2104/2124 12013KT P6SM SCT250
FM211000 12012KT P6SM BKN025
FM211200 13013KT P6SM BKN015
FM211600 13014KT P6SM BKN025
FM211800 14015G25KT P6SM SCT050
No reported NOTAMs for that airfield.



MET'MAP, your aeronautical weather chart ! - Copyright ORBIFLY December 2007 - Disclaimer

ORBIFLY MET'MAP TEAM :

Programming & Development : Alexandra Zaïnal
Concept & Development : Baudouin d'Aumeries
Co-Development & Prog : Marc-Olivier Méhu
Technical & hardware support : Manuel Goepfert

Contact : metmap@orbifly.com




SOURCES & CREDITS :

   NOAA       Earth
Advisory